sensor_id;sensor_type;location;lat;lon;timestamp;pressure;altitude;pressure_sealevel;temperature;humidity
78888;BME280;68276;49.326;8.690;2023-05-10T00:02:06;99674.56;;;13.68;100.00
78888;BME280;68276;49.326;8.690;2023-05-10T00:04:32;99676.88;;;13.64;100.00
78888;BME280;68276;49.326;8.690;2023-05-10T00:06:57;99685.19;;;13.63;100.00
78888;BME280;68276;49.326;8.690;2023-05-10T00:09:23;99683.09;;;13.65;100.00
78888;BME280;68276;49.326;8.690;2023-05-10T00:11:48;99674.63;;;13.61;100.00
78888;BME280;68276;49.326;8.690;2023-05-10T00:14:14;99673.22;;;13.59;100.00
78888;BME280;68276;49.326;8.690;2023-05-10T00:16:39;99678.63;;;13.59;100.00
78888;BME280;68276;49.326;8.690;2023-05-10T00:19:04;99686.25;;;13.62;100.00
78888;BME280;68276;49.326;8.690;2023-05-10T00:21:30;99681.88;;;13.61;100.00
78888;BME280;68276;49.326;8.690;2023-05-10T00:23:55;99675.13;;;13.52;100.00
78888;BME280;68276;49.326;8.690;2023-05-10T00:26:20;99677.00;;;13.51;100.00
78888;BME280;68276;49.326;8.690;2023-05-10T00:28:46;99682.19;;;13.53;100.00
78888;BME280;68276;49.326;8.690;2023-05-10T00:31:11;99677.16;;;13.56;100.00
78888;BME280;68276;49.326;8.690;2023-05-10T00:33:37;99670.16;;;13.49;100.00
78888;BME280;68276;49.326;8.690;2023-05-10T00:36:02;99671.06;;;13.43;100.00
78888;BME280;68276;49.326;8.690;2023-05-10T00:38:28;99671.22;;;13.48;100.00
78888;BME280;68276;49.326;8.690;2023-05-10T00:40:53;99670.53;;;13.52;100.00
78888;BME280;68276;49.326;8.690;2023-05-10T00:43:18;99681.78;;;13.49;100.00
78888;BME280;68276;49.326;8.690;2023-05-10T00:45:44;99683.00;;;13.53;100.00
78888;BME280;68276;49.326;8.690;2023-05-10T00:48:09;99686.78;;;13.46;100.00
78888;BME280;68276;49.326;8.690;2023-05-10T00:50:35;99685.16;;;13.45;100.00
78888;BME280;68276;49.326;8.690;2023-05-10T00:53:01;99689.88;;;13.49;100.00
78888;BME280;68276;49.326;8.690;2023-05-10T00:55:27;99689.03;;;13.49;100.00
78888;BME280;68276;49.326;8.690;2023-05-10T00:57:53;99689.31;;;13.41;100.00
78888;BME280;68276;49.326;8.690;2023-05-10T01:00:18;99686.19;;;13.44;100.00
78888;BME280;68276;49.326;8.690;2023-05-10T01:02:45;99695.34;;;13.43;100.00
78888;BME280;68276;49.326;8.690;2023-05-10T01:05:11;99689.94;;;13.43;100.00
78888;BME280;68276;49.326;8.690;2023-05-10T01:07:36;99689.88;;;13.49;100.00
78888;BME280;68276;49.326;8.690;2023-05-10T01:10:02;99688.84;;;13.50;100.00
78888;BME280;68276;49.326;8.690;2023-05-10T01:12:27;99684.88;;;13.53;100.00
78888;BME280;68276;49.326;8.690;2023-05-10T01:14:54;99684.53;;;13.43;100.00
78888;BME280;68276;49.326;8.690;2023-05-10T01:17:20;99687.91;;;13.38;100.00
78888;BME280;68276;49.326;8.690;2023-05-10T01:19:46;99688.94;;;13.37;100.00
78888;BME280;68276;49.326;8.690;2023-05-10T01:33:55;99696.53;;;13.22;100.00
78888;BME280;68276;49.326;8.690;2023-05-10T01:39:01;99700.06;;;13.23;100.00
78888;BME280;68276;49.326;8.690;2023-05-10T01:41:42;99699.63;;;13.26;100.00
78888;BME280;68276;49.326;8.690;2023-05-10T01:44:17;99694.66;;;13.23;100.00
78888;BME280;68276;49.326;8.690;2023-05-10T01:46:49;99704.63;;;13.22;100.00
78888;BME280;68276;49.326;8.690;2023-05-10T01:49:30;99709.00;;;13.17;100.00
78888;BME280;68276;49.326;8.690;2023-05-10T01:52:06;99710.84;;;13.23;100.00
78888;BME280;68276;49.326;8.690;2023-05-10T01:54:32;99715.34;;;13.29;100.00
78888;BME280;68276;49.326;8.690;2023-05-10T01:57:05;99719.91;;;13.35;100.00
78888;BME280;68276;49.326;8.690;2023-05-10T01:59:34;99708.22;;;13.41;100.00
78888;BME280;68276;49.326;8.690;2023-05-10T02:02:06;99708.72;;;13.25;100.00
78888;BME280;68276;49.326;8.690;2023-05-10T02:04:33;99707.66;;;13.32;100.00
78888;BME280;68276;49.326;8.690;2023-05-10T02:07:00;99720.31;;;13.32;100.00
78888;BME280;68276;49.326;8.690;2023-05-10T02:09:27;99711.19;;;13.33;100.00
78888;BME280;68276;49.326;8.690;2023-05-10T02:11:55;99708.94;;;13.23;100.00
78888;BME280;68276;49.326;8.690;2023-05-10T02:14:22;99724.50;;;13.28;100.00
78888;BME280;68276;49.326;8.690;2023-05-10T02:16:50;99721.59;;;13.29;100.00
78888;BME280;68276;49.326;8.690;2023-05-10T02:19:17;99720.19;;;13.20;100.00
78888;BME280;68276;49.326;8.690;2023-05-10T02:21:45;99716.03;;;13.24;100.00
78888;BME280;68276;49.326;8.690;2023-05-10T02:24:11;99721.81;;;13.28;100.00
78888;BME280;68276;49.326;8.690;2023-05-10T02:26:40;99729.53;;;13.18;100.00
78888;BME280;68276;49.326;8.690;2023-05-10T02:29:09;99737.59;;;13.24;100.00
78888;BME280;68276;49.326;8.690;2023-05-10T02:31:37;99742.41;;;13.16;100.00
78888;BME280;68276;49.326;8.690;2023-05-10T02:34:04;99746.31;;;13.20;100.00
78888;BME280;68276;49.326;8.690;2023-05-10T02:36:32;99734.75;;;13.13;100.00
78888;BME280;68276;49.326;8.690;2023-05-10T02:38:59;99735.34;;;13.15;100.00
78888;BME280;68276;49.326;8.690;2023-05-10T02:41:27;99742.03;;;13.06;100.00
78888;BME280;68276;49.326;8.690;2023-05-10T02:43:57;99732.66;;;13.15;100.00
78888;BME280;68276;49.326;8.690;2023-05-10T02:46:25;99731.38;;;13.24;100.00
78888;BME280;68276;49.326;8.690;2023-05-10T02:48:50;99740.50;;;13.23;100.00
78888;BME280;68276;49.326;8.690;2023-05-10T02:51:16;99736.59;;;13.19;100.00
78888;BME280;68276;49.326;8.690;2023-05-10T02:53:45;99737.88;;;13.10;100.00
78888;BME280;68276;49.326;8.690;2023-05-10T02:56:15;99744.16;;;13.04;100.00
78888;BME280;68276;49.326;8.690;2023-05-10T02:58:45;99746.22;;;13.02;100.00
78888;BME280;68276;49.326;8.690;2023-05-10T03:01:10;99748.03;;;13.08;100.00
78888;BME280;68276;49.326;8.690;2023-05-10T03:03:36;99748.06;;;13.01;100.00
78888;BME280;68276;49.326;8.690;2023-05-10T03:06:01;99751.19;;;13.05;100.00
78888;BME280;68276;49.326;8.690;2023-05-10T03:08:27;99739.97;;;13.08;100.00
78888;BME280;68276;49.326;8.690;2023-05-10T03:11:01;99740.78;;;13.08;100.00
78888;BME280;68276;49.326;8.690;2023-05-10T03:13:39;99744.72;;;13.12;100.00
78888;BME280;68276;49.326;8.690;2023-05-10T03:16:12;99742.84;;;13.13;100.00
78888;BME280;68276;49.326;8.690;2023-05-10T03:21:11;99739.34;;;12.99;100.00
78888;BME280;68276;49.326;8.690;2023-05-10T03:23:51;99744.97;;;12.98;100.00
78888;BME280;68276;49.326;8.690;2023-05-10T03:26:24;99751.19;;;13.05;100.00
78888;BME280;68276;49.326;8.690;2023-05-10T03:28:51;99755.91;;;13.09;100.00
78888;BME280;68276;49.326;8.690;2023-05-10T03:31:18;99753.63;;;13.13;100.00
78888;BME280;68276;49.326;8.690;2023-05-10T03:33:51;99755.13;;;13.02;100.00
78888;BME280;68276;49.326;8.690;2023-05-10T03:36:17;99752.81;;;13.06;100.00
78888;BME280;68276;49.326;8.690;2023-05-10T03:38:42;99759.88;;;13.07;100.00
78888;BME280;68276;49.326;8.690;2023-05-10T03:41:08;99757.81;;;13.02;100.00
78888;BME280;68276;49.326;8.690;2023-05-10T03:43:33;99766.31;;;13.06;100.00
78888;BME280;68276;49.326;8.690;2023-05-10T03:46:01;99766.31;;;12.99;100.00
78888;BME280;68276;49.326;8.690;2023-05-10T03:48:27;99772.16;;;12.96;100.00
78888;BME280;68276;49.326;8.690;2023-05-10T03:50:52;99775.69;;;12.97;100.00
78888;BME280;68276;49.326;8.690;2023-05-10T03:53:17;99773.19;;;13.02;100.00
78888;BME280;68276;49.326;8.690;2023-05-10T03:55:43;99782.31;;;13.07;100.00
78888;BME280;68276;49.326;8.690;2023-05-10T03:58:10;99775.41;;;13.11;100.00
78888;BME280;68276;49.326;8.690;2023-05-10T04:00:36;99778.78;;;13.07;100.00
78888;BME280;68276;49.326;8.690;2023-05-10T04:03:02;99779.78;;;13.06;100.00
78888;BME280;68276;49.326;8.690;2023-05-10T04:05:27;99783.72;;;13.10;100.00
78888;BME280;68276;49.326;8.690;2023-05-10T04:07:52;99788.06;;;13.11;100.00
78888;BME280;68276;49.326;8.690;2023-05-10T04:10:18;99795.13;;;13.12;100.00
78888;BME280;68276;49.326;8.690;2023-05-10T04:12:43;99793.88;;;13.08;100.00
78888;BME280;68276;49.326;8.690;2023-05-10T04:15:09;99793.66;;;13.09;100.00
78888;BME280;68276;49.326;8.690;2023-05-10T04:17:34;99796.59;;;13.08;100.00
78888;BME280;68276;49.326;8.690;2023-05-10T04:19:59;99801.75;;;13.09;100.00
78888;BME280;68276;49.326;8.690;2023-05-10T04:22:25;99795.78;;;13.07;100.00
78888;BME280;68276;49.326;8.690;2023-05-10T04:24:50;99796.59;;;13.08;100.00
78888;BME280;68276;49.326;8.690;2023-05-10T04:27:16;99791.19;;;13.01;100.00
78888;BME280;68276;49.326;8.690;2023-05-10T04:29:41;99798.66;;;12.99;100.00
78888;BME280;68276;49.326;8.690;2023-05-10T04:32:07;99796.59;;;13.01;100.00
78888;BME280;68276;49.326;8.690;2023-05-10T04:34:32;99805.56;;;13.02;100.00
78888;BME280;68276;49.326;8.690;2023-05-10T04:36:59;99809.66;;;13.04;100.00
78888;BME280;68276;49.326;8.690;2023-05-10T04:39:24;99803.25;;;13.05;100.00
78888;BME280;68276;49.326;8.690;2023-05-10T04:41:50;99796.81;;;13.06;100.00
78888;BME280;68276;49.326;8.690;2023-05-10T04:44:15;99805.50;;;13.08;100.00
78888;BME280;68276;49.326;8.690;2023-05-10T04:46:40;99802.59;;;13.10;100.00
78888;BME280;68276;49.326;8.690;2023-05-10T04:49:06;99800.31;;;13.13;100.00
78888;BME280;68276;49.326;8.690;2023-05-10T04:51:31;99799.69;;;13.11;100.00
78888;BME280;68276;49.326;8.690;2023-05-10T04:53:57;99794.28;;;13.11;100.00
78888;BME280;68276;49.326;8.690;2023-05-10T04:56:22;99806.31;;;13.15;100.00
78888;BME280;68276;49.326;8.690;2023-05-10T04:58:47;99808.78;;;13.17;100.00
78888;BME280;68276;49.326;8.690;2023-05-10T05:01:13;99809.19;;;13.20;100.00
78888;BME280;68276;49.326;8.690;2023-05-10T05:03:39;99807.06;;;13.29;100.00
78888;BME280;68276;49.326;8.690;2023-05-10T05:06:04;99817.03;;;13.35;100.00
78888;BME280;68276;49.326;8.690;2023-05-10T05:11:19;99814.72;;;13.32;100.00
78888;BME280;68276;49.326;8.690;2023-05-10T05:13:44;99815.91;;;13.42;100.00
78888;BME280;68276;49.326;8.690;2023-05-10T05:16:10;99818.19;;;13.45;100.00
78888;BME280;68276;49.326;8.690;2023-05-10T05:18:36;99814.00;;;13.49;100.00
78888;BME280;68276;49.326;8.690;2023-05-10T05:21:02;99811.53;;;13.48;100.00
78888;BME280;68276;49.326;8.690;2023-05-10T05:23:27;99813.56;;;13.59;100.00
78888;BME280;68276;49.326;8.690;2023-05-10T05:25:52;99818.78;;;13.54;100.00
78888;BME280;68276;49.326;8.690;2023-05-10T05:28:19;99813.00;;;13.50;100.00
78888;BME280;68276;49.326;8.690;2023-05-10T05:30:45;99809.84;;;13.53;100.00
78888;BME280;68276;49.326;8.690;2023-05-10T05:33:10;99816.84;;;13.61;100.00
78888;BME280;68276;49.326;8.690;2023-05-10T05:35:35;99820.41;;;13.55;100.00
78888;BME280;68276;49.326;8.690;2023-05-10T05:38:01;99827.06;;;13.59;100.00
78888;BME280;68276;49.326;8.690;2023-05-10T05:40:26;99822.84;;;13.63;100.00
78888;BME280;68276;49.326;8.690;2023-05-10T05:42:51;99831.31;;;13.73;100.00
78888;BME280;68276;49.326;8.690;2023-05-10T05:45:17;99837.69;;;13.78;100.00
78888;BME280;68276;49.326;8.690;2023-05-10T05:47:42;99838.25;;;13.87;100.00
78888;BME280;68276;49.326;8.690;2023-05-10T05:50:08;99836.44;;;13.81;100.00
78888;BME280;68276;49.326;8.690;2023-05-10T05:52:34;99845.50;;;13.93;100.00
78888;BME280;68276;49.326;8.690;2023-05-10T05:54:59;99838.66;;;13.91;100.00
78888;BME280;68276;49.326;8.690;2023-05-10T05:57:25;99845.34;;;13.88;100.00
78888;BME280;68276;49.326;8.690;2023-05-10T05:59:51;99846.56;;;13.92;100.00
78888;BME280;68276;49.326;8.690;2023-05-10T06:02:17;99848.66;;;13.83;100.00
78888;BME280;68276;49.326;8.690;2023-05-10T06:04:42;99854.91;;;13.84;100.00
78888;BME280;68276;49.326;8.690;2023-05-10T06:07:08;99848.47;;;13.85;100.00
78888;BME280;68276;49.326;8.690;2023-05-10T06:09:33;99853.88;;;13.85;100.00
78888;BME280;68276;49.326;8.690;2023-05-10T06:11:59;99864.25;;;13.88;100.00
78888;BME280;68276;49.326;8.690;2023-05-10T06:14:24;99865.41;;;13.99;100.00
78888;BME280;68276;49.326;8.690;2023-05-10T06:16:50;99870.19;;;13.97;100.00
78888;BME280;68276;49.326;8.690;2023-05-10T06:19:15;99867.38;;;13.85;100.00
78888;BME280;68276;49.326;8.690;2023-05-10T06:21:40;99865.19;;;14.00;100.00
78888;BME280;68276;49.326;8.690;2023-05-10T06:24:06;99873.84;;;14.09;100.00
78888;BME280;68276;49.326;8.690;2023-05-10T06:26:32;99877.22;;;14.04;100.00
78888;BME280;68276;49.326;8.690;2023-05-10T06:28:57;99883.75;;;14.15;100.00
78888;BME280;68276;49.326;8.690;2023-05-10T06:31:23;99880.81;;;14.23;100.00
78888;BME280;68276;49.326;8.690;2023-05-10T06:33:48;99881.47;;;14.18;100.00
78888;BME280;68276;49.326;8.690;2023-05-10T06:36:14;99885.09;;;14.06;100.00
78888;BME280;68276;49.326;8.690;2023-05-10T06:38:39;99884.72;;;14.02;100.00
78888;BME280;68276;49.326;8.690;2023-05-10T06:41:05;99888.28;;;13.96;100.00
78888;BME280;68276;49.326;8.690;2023-05-10T06:43:30;99886.44;;;13.90;100.00
78888;BME280;68276;49.326;8.690;2023-05-10T06:45:56;99885.16;;;13.93;100.00
78888;BME280;68276;49.326;8.690;2023-05-10T06:48:22;99891.97;;;14.02;100.00
78888;BME280;68276;49.326;8.690;2023-05-10T06:50:50;99885.84;;;13.88;100.00
78888;BME280;68276;49.326;8.690;2023-05-10T06:53:15;99895.06;;;14.05;100.00
78888;BME280;68276;49.326;8.690;2023-05-10T06:55:41;99891.22;;;14.19;100.00
78888;BME280;68276;49.326;8.690;2023-05-10T06:58:06;99898.06;;;13.91;100.00
78888;BME280;68276;49.326;8.690;2023-05-10T07:00:32;99896.75;;;14.00;100.00
78888;BME280;68276;49.326;8.690;2023-05-10T07:02:57;99898.56;;;14.12;100.00
78888;BME280;68276;49.326;8.690;2023-05-10T07:05:23;99897.31;;;14.08;100.00
78888;BME280;68276;49.326;8.690;2023-05-10T07:07:48;99905.78;;;14.18;100.00
78888;BME280;68276;49.326;8.690;2023-05-10T07:10:14;99903.97;;;14.12;100.00
78888;BME280;68276;49.326;8.690;2023-05-10T07:12:39;99900.69;;;14.35;100.00
78888;BME280;68276;49.326;8.690;2023-05-10T07:15:05;99906.59;;;14.19;100.00
78888;BME280;68276;49.326;8.690;2023-05-10T07:17:31;99918.78;;;14.34;100.00
78888;BME280;68276;49.326;8.690;2023-05-10T07:19:58;99909.03;;;14.33;100.00
78888;BME280;68276;49.326;8.690;2023-05-10T07:22:26;99911.84;;;14.45;100.00
78888;BME280;68276;49.326;8.690;2023-05-10T07:24:51;99902.34;;;14.60;100.00
78888;BME280;68276;49.326;8.690;2023-05-10T07:27:17;99904.78;;;14.44;100.00
78888;BME280;68276;49.326;8.690;2023-05-10T07:29:42;99903.56;;;14.40;100.00
78888;BME280;68276;49.326;8.690;2023-05-10T07:32:07;99909.53;;;14.48;100.00
78888;BME280;68276;49.326;8.690;2023-05-10T07:34:33;99906.28;;;14.64;100.00
78888;BME280;68276;49.326;8.690;2023-05-10T07:37:06;99901.75;;;14.58;100.00
78888;BME280;68276;49.326;8.690;2023-05-10T07:39:32;99911.28;;;14.36;100.00
78888;BME280;68276;49.326;8.690;2023-05-10T07:41:58;99914.94;;;14.48;100.00
78888;BME280;68276;49.326;8.690;2023-05-10T07:44:23;99914.25;;;14.77;100.00
78888;BME280;68276;49.326;8.690;2023-05-10T07:46:49;99919.25;;;14.99;100.00
78888;BME280;68276;49.326;8.690;2023-05-10T07:49:14;99918.47;;;14.91;100.00
78888;BME280;68276;49.326;8.690;2023-05-10T07:51:40;99903.16;;;14.85;100.00
78888;BME280;68276;49.326;8.690;2023-05-10T07:54:06;99904.31;;;15.14;100.00
78888;BME280;68276;49.326;8.690;2023-05-10T07:56:32;99905.22;;;15.08;100.00
78888;BME280;68276;49.326;8.690;2023-05-10T07:58:59;99904.84;;;15.05;100.00
78888;BME280;68276;49.326;8.690;2023-05-10T08:01:25;99902.81;;;15.18;100.00
78888;BME280;68276;49.326;8.690;2023-05-10T08:03:51;99906.41;;;15.30;100.00
78888;BME280;68276;49.326;8.690;2023-05-10T08:06:19;99906.03;;;15.27;100.00
78888;BME280;68276;49.326;8.690;2023-05-10T08:08:48;99917.63;;;15.34;100.00
78888;BME280;68276;49.326;8.690;2023-05-10T08:11:19;99919.34;;;15.46;100.00
78888;BME280;68276;49.326;8.690;2023-05-10T08:13:46;99921.69;;;15.25;100.00
78888;BME280;68276;49.326;8.690;2023-05-10T08:16:12;99922.28;;;15.27;100.00
78888;BME280;68276;49.326;8.690;2023-05-10T08:18:38;99916.25;;;15.25;100.00
78888;BME280;68276;49.326;8.690;2023-05-10T08:21:04;99921.03;;;15.47;100.00
78888;BME280;68276;49.326;8.690;2023-05-10T08:23:30;99918.59;;;15.57;100.00
78888;BME280;68276;49.326;8.690;2023-05-10T08:25:55;99923.31;;;15.62;100.00
78888;BME280;68276;49.326;8.690;2023-05-10T08:28:21;99926.25;;;15.60;100.00
78888;BME280;68276;49.326;8.690;2023-05-10T08:30:46;99929.06;;;15.54;100.00
78888;BME280;68276;49.326;8.690;2023-05-10T08:33:17;99932.88;;;15.46;100.00
78888;BME280;68276;49.326;8.690;2023-05-10T08:35:43;99932.59;;;15.54;100.00
78888;BME280;68276;49.326;8.690;2023-05-10T08:38:08;99932.78;;;15.89;100.00
78888;BME280;68276;49.326;8.690;2023-05-10T08:40:34;99930.19;;;15.46;100.00
78888;BME280;68276;49.326;8.690;2023-05-10T08:43:15;99924.84;;;15.58;100.00
78888;BME280;68276;49.326;8.690;2023-05-10T08:45:42;99936.59;;;15.99;100.00
78888;BME280;68276;49.326;8.690;2023-05-10T08:48:10;99929.34;;;15.82;100.00
78888;BME280;68276;49.326;8.690;2023-05-10T08:50:37;99926.00;;;15.98;100.00
78888;BME280;68276;49.326;8.690;2023-05-10T08:53:09;99925.66;;;15.76;100.00
78888;BME280;68276;49.326;8.690;2023-05-10T08:55:35;99934.16;;;15.80;100.00
78888;BME280;68276;49.326;8.690;2023-05-10T08:58:10;99936.97;;;16.03;100.00
78888;BME280;68276;49.326;8.690;2023-05-10T09:00:37;99936.63;;;16.11;100.00
78888;BME280;68276;49.326;8.690;2023-05-10T09:03:04;99948.38;;;15.75;100.00
78888;BME280;68276;49.326;8.690;2023-05-10T09:05:30;99947.19;;;15.71;99.10
78888;BME280;68276;49.326;8.690;2023-05-10T09:07:56;99947.34;;;15.58;98.87
78888;BME280;68276;49.326;8.690;2023-05-10T09:10:22;99937.31;;;15.59;99.62
78888;BME280;68276;49.326;8.690;2023-05-10T09:12:51;99950.19;;;15.45;99.02
78888;BME280;68276;49.326;8.690;2023-05-10T09:15:17;99958.78;;;15.42;98.91
78888;BME280;68276;49.326;8.690;2023-05-10T09:17:44;99953.28;;;15.49;100.00
78888;BME280;68276;49.326;8.690;2023-05-10T09:20:11;99948.66;;;15.67;99.97
78888;BME280;68276;49.326;8.690;2023-05-10T09:22:36;99955.63;;;15.93;98.26
78888;BME280;68276;49.326;8.690;2023-05-10T09:25:12;99950.25;;;16.34;96.28
78888;BME280;68276;49.326;8.690;2023-05-10T09:27:39;99953.88;;;16.58;93.08
78888;BME280;68276;49.326;8.690;2023-05-10T09:30:07;99953.00;;;16.46;89.16
78888;BME280;68276;49.326;8.690;2023-05-10T09:32:38;99957.97;;;16.49;91.11
78888;BME280;68276;49.326;8.690;2023-05-10T09:35:11;99956.88;;;16.79;89.43
78888;BME280;68276;49.326;8.690;2023-05-10T09:37:42;99959.06;;;16.59;90.27
78888;BME280;68276;49.326;8.690;2023-05-10T09:40:11;99965.81;;;16.68;85.91
78888;BME280;68276;49.326;8.690;2023-05-10T09:42:50;99961.69;;;16.89;84.71
78888;BME280;68276;49.326;8.690;2023-05-10T09:45:16;99966.41;;;16.93;85.51
78888;BME280;68276;49.326;8.690;2023-05-10T09:47:42;99966.06;;;17.01;83.04
78888;BME280;68276;49.326;8.690;2023-05-10T09:50:07;99967.34;;;17.34;83.19
78888;BME280;68276;49.326;8.690;2023-05-10T09:52:51;99971.09;;;16.75;85.96
78888;BME280;68276;49.326;8.690;2023-05-10T09:55:19;99963.69;;;17.16;81.70
78888;BME280;68276;49.326;8.690;2023-05-10T09:57:46;99969.84;;;17.24;77.34
78888;BME280;68276;49.326;8.690;2023-05-10T10:00:19;99969.94;;;17.29;76.38
78888;BME280;68276;49.326;8.690;2023-05-10T10:02:53;99965.13;;;17.54;76.24
78888;BME280;68276;49.326;8.690;2023-05-10T10:05:31;99959.31;;;17.39;80.59
78888;BME280;68276;49.326;8.690;2023-05-10T10:07:58;99968.91;;;17.30;81.15
78888;BME280;68276;49.326;8.690;2023-05-10T10:10:27;99961.81;;;17.17;81.47
78888;BME280;68276;49.326;8.690;2023-05-10T10:12:54;99954.38;;;17.12;77.47
78888;BME280;68276;49.326;8.690;2023-05-10T10:15:23;99972.44;;;17.53;77.35
78888;BME280;68276;49.326;8.690;2023-05-10T10:17:56;99978.41;;;17.67;77.45
78888;BME280;68276;49.326;8.690;2023-05-10T10:20:22;99975.97;;;17.54;76.53
78888;BME280;68276;49.326;8.690;2023-05-10T10:22:48;99972.88;;;17.39;75.44
78888;BME280;68276;49.326;8.690;2023-05-10T10:25:17;99978.53;;;17.72;74.35
78888;BME280;68276;49.326;8.690;2023-05-10T10:28:06;99971.09;;;17.67;73.16
78888;BME280;68276;49.326;8.690;2023-05-10T10:30:43;99984.13;;;17.54;72.82
78888;BME280;68276;49.326;8.690;2023-05-10T10:35:58;99984.59;;;17.51;73.23
78888;BME280;68276;49.326;8.690;2023-05-10T10:38:24;99994.03;;;17.37;69.97
78888;BME280;68276;49.326;8.690;2023-05-10T10:41:02;99980.50;;;17.88;69.94
78888;BME280;68276;49.326;8.690;2023-05-10T10:43:28;100000.59;;;18.15;67.74
78888;BME280;68276;49.326;8.690;2023-05-10T10:46:09;99979.47;;;17.77;63.73
78888;BME280;68276;49.326;8.690;2023-05-10T10:48:35;99977.28;;;17.91;66.03
78888;BME280;68276;49.326;8.690;2023-05-10T10:51:01;99971.56;;;18.32;63.19
78888;BME280;68276;49.326;8.690;2023-05-10T10:53:27;99962.31;;;17.88;64.70
78888;BME280;68276;49.326;8.690;2023-05-10T10:56:05;99980.69;;;17.98;64.04
78888;BME280;68276;49.326;8.690;2023-05-10T10:58:39;99980.03;;;18.19;61.08
78888;BME280;68276;49.326;8.690;2023-05-10T11:01:16;99987.81;;;17.87;63.19
78888;BME280;68276;49.326;8.690;2023-05-10T11:06:31;99975.50;;;17.57;64.05
78888;BME280;68276;49.326;8.690;2023-05-10T11:08:57;99979.97;;;17.40;65.65
78888;BME280;68276;49.326;8.690;2023-05-10T11:11:23;99983.97;;;17.72;66.84
78888;BME280;68276;49.326;8.690;2023-05-10T11:13:49;99983.13;;;17.83;65.76
78888;BME280;68276;49.326;8.690;2023-05-10T11:16:22;99980.22;;;17.50;67.00
78888;BME280;68276;49.326;8.690;2023-05-10T11:19:05;99983.97;;;17.72;66.03
78888;BME280;68276;49.326;8.690;2023-05-10T11:21:33;99979.38;;;17.72;66.02
78888;BME280;68276;49.326;8.690;2023-05-10T11:24:00;99981.28;;;18.00;65.41
78888;BME280;68276;49.326;8.690;2023-05-10T11:26:35;99990.47;;;17.71;65.60
78888;BME280;68276;49.326;8.690;2023-05-10T11:29:00;99989.75;;;17.75;64.18
78888;BME280;68276;49.326;8.690;2023-05-10T11:31:27;99997.03;;;18.26;64.71
78888;BME280;68276;49.326;8.690;2023-05-10T11:33:54;99995.13;;;18.26;59.30
78888;BME280;68276;49.326;8.690;2023-05-10T11:36:28;99992.31;;;17.93;59.83
78888;BME280;68276;49.326;8.690;2023-05-10T11:38:55;100006.19;;;18.08;60.43
78888;BME280;68276;49.326;8.690;2023-05-10T11:41:22;100012.13;;;17.94;59.84
78888;BME280;68276;49.326;8.690;2023-05-10T11:43:53;100002.69;;;17.96;59.50
78888;BME280;68276;49.326;8.690;2023-05-10T11:46:20;99997.66;;;17.77;60.73
78888;BME280;68276;49.326;8.690;2023-05-10T11:48:48;100006.44;;;17.33;62.74
78888;BME280;68276;49.326;8.690;2023-05-10T11:51:15;100010.59;;;17.47;64.28
78888;BME280;68276;49.326;8.690;2023-05-10T11:53:40;100008.78;;;17.41;63.30
78888;BME280;68276;49.326;8.690;2023-05-10T11:56:07;100012.34;;;17.53;65.17
78888;BME280;68276;49.326;8.690;2023-05-10T11:58:34;100017.66;;;17.25;66.10
78888;BME280;68276;49.326;8.690;2023-05-10T12:01:00;100020.13;;;17.38;67.45
78888;BME280;68276;49.326;8.690;2023-05-10T12:03:27;100003.81;;;17.38;69.67
78888;BME280;68276;49.326;8.690;2023-05-10T12:05:53;100005.81;;;17.42;70.46
78888;BME280;68276;49.326;8.690;2023-05-10T12:08:22;100011.84;;;17.09;74.50
78888;BME280;68276;49.326;8.690;2023-05-10T12:10:48;100031.09;;;16.26;79.79
78888;BME280;68276;49.326;8.690;2023-05-10T12:13:14;100034.59;;;15.78;82.35
78888;BME280;68276;49.326;8.690;2023-05-10T12:15:40;100022.09;;;15.59;79.24
78888;BME280;68276;49.326;8.690;2023-05-10T12:18:08;100030.06;;;15.72;79.62
78888;BME280;68276;49.326;8.690;2023-05-10T12:20:35;100036.09;;;15.92;79.92
78888;BME280;68276;49.326;8.690;2023-05-10T12:23:01;100033.63;;;15.91;77.63
78888;BME280;68276;49.326;8.690;2023-05-10T12:25:36;100037.66;;;16.00;76.10
78888;BME280;68276;49.326;8.690;2023-05-10T12:28:07;100037.59;;;15.88;74.92
78888;BME280;68276;49.326;8.690;2023-05-10T12:30:35;100030.78;;;16.16;74.27
78888;BME280;68276;49.326;8.690;2023-05-10T12:33:09;100031.97;;;16.38;71.87
78888;BME280;68276;49.326;8.690;2023-05-10T12:35:44;100034.03;;;16.95;68.54
78888;BME280;68276;49.326;8.690;2023-05-10T12:38:44;100024.59;;;17.44;64.97
78888;BME280;68276;49.326;8.690;2023-05-10T12:41:13;100027.69;;;17.24;64.58
78888;BME280;68276;49.326;8.690;2023-05-10T12:43:40;100027.78;;;17.06;62.44
78888;BME280;68276;49.326;8.690;2023-05-10T12:48:36;100015.38;;;17.79;58.39
78888;BME280;68276;49.326;8.690;2023-05-10T12:51:05;100028.28;;;18.12;57.63
78888;BME280;68276;49.326;8.690;2023-05-10T12:53:35;100021.47;;;18.82;53.58
78888;BME280;68276;49.326;8.690;2023-05-10T12:56:01;100020.91;;;18.97;53.76
78888;BME280;68276;49.326;8.690;2023-05-10T12:58:26;100026.69;;;19.33;52.34
78888;BME280;68276;49.326;8.690;2023-05-10T13:00:52;100019.66;;;19.54;52.91
78888;BME280;68276;49.326;8.690;2023-05-10T13:03:17;100024.13;;;18.94;55.77
78888;BME280;68276;49.326;8.690;2023-05-10T13:05:43;100018.19;;;19.30;53.28
78888;BME280;68276;49.326;8.690;2023-05-10T13:08:08;100016.34;;;19.19;52.46
78888;BME280;68276;49.326;8.690;2023-05-10T13:10:33;100028.81;;;18.82;53.26
78888;BME280;68276;49.326;8.690;2023-05-10T13:12:59;100018.94;;;18.92;52.96
78888;BME280;68276;49.326;8.690;2023-05-10T13:15:25;100016.75;;;18.94;52.14
78888;BME280;68276;49.326;8.690;2023-05-10T13:17:53;100018.25;;;19.02;52.58
78888;BME280;68276;49.326;8.690;2023-05-10T13:20:19;100009.44;;;19.11;52.48
78888;BME280;68276;49.326;8.690;2023-05-10T13:22:44;100010.16;;;19.07;51.37